createdAt,value
2023-04-18T00:01:20.512Z,8.93
2023-04-18T00:03:47.282Z,10.60
2023-04-18T00:06:13.957Z,10.13
2023-04-18T00:08:41.852Z,11.18
2023-04-18T00:11:08.502Z,9.93
2023-04-18T00:13:34.951Z,11.13
2023-04-18T00:16:01.412Z,9.00
2023-04-18T00:18:27.957Z,10.98
2023-04-18T00:20:54.616Z,12.88
2023-04-18T00:23:21.126Z,10.57
2023-04-18T00:25:48.940Z,11.73
2023-04-18T00:28:15.560Z,9.70
2023-04-18T00:30:42.052Z,10.25
2023-04-18T00:33:08.544Z,11.98
2023-04-18T00:35:35.026Z,12.43
2023-04-18T00:38:01.449Z,11.98
2023-04-18T00:40:27.959Z,11.15
2023-04-18T00:42:55.860Z,11.60
2023-04-18T00:45:22.347Z,11.57
2023-04-18T00:47:48.896Z,11.45
2023-04-18T00:50:15.898Z,11.63
2023-04-18T00:52:44.334Z,10.68
2023-04-18T00:55:10.911Z,13.48
2023-04-18T00:57:37.409Z,12.60
2023-04-18T01:00:07.207Z,11.02
2023-04-18T01:02:33.921Z,11.88
2023-04-18T01:05:00.478Z,12.25
2023-04-18T01:07:27.209Z,11.95
2023-04-18T01:09:54.121Z,13.32
2023-04-18T01:12:20.570Z,12.05
2023-04-18T01:14:47.127Z,11.70
2023-04-18T01:17:14.948Z,12.07
2023-04-18T01:19:41.578Z,11.20
2023-04-18T01:22:08.740Z,12.05
2023-04-18T01:24:36.570Z,12.40
2023-04-18T01:27:03.162Z,12.77
2023-04-18T01:29:29.684Z,13.07
2023-04-18T01:31:56.212Z,11.75
2023-04-18T01:34:22.655Z,12.88
2023-04-18T01:36:49.170Z,13.07
2023-04-18T01:39:15.717Z,12.65
2023-04-18T01:41:43.608Z,12.75
2023-04-18T01:44:10.156Z,12.30
2023-04-18T01:46:36.730Z,12.98
2023-04-18T01:49:03.427Z,11.50
2023-04-18T01:51:29.906Z,11.45
2023-04-18T01:53:56.625Z,12.63
2023-04-18T01:56:23.087Z,12.10
2023-04-18T01:58:50.867Z,13.85
2023-04-18T02:01:17.337Z,11.60
2023-04-18T02:03:43.940Z,11.65
2023-04-18T02:06:10.456Z,14.25
2023-04-18T02:08:37.116Z,12.43
2023-04-18T02:11:03.768Z,14.18
2023-04-18T02:13:30.364Z,13.57
2023-04-18T02:15:58.192Z,12.38
2023-04-18T02:18:25.066Z,12.80
2023-04-18T02:20:51.969Z,12.27
2023-04-18T02:23:19.018Z,12.05
2023-04-18T02:25:45.698Z,13.07
2023-04-18T02:28:12.141Z,13.88
2023-04-18T02:30:38.621Z,13.95
2023-04-18T02:33:06.429Z,12.90
2023-04-18T02:35:32.928Z,12.98
2023-04-18T02:37:59.411Z,12.43
2023-04-18T02:40:25.927Z,12.50
2023-04-18T02:42:52.381Z,14.88
2023-04-18T02:45:19.006Z,12.30
2023-04-18T02:47:54.765Z,13.15
2023-04-18T02:50:24.721Z,13.07
2023-04-18T02:52:51.453Z,11.82
2023-04-18T02:55:18.170Z,12.15
2023-04-18T02:57:44.724Z,13.85
2023-04-18T03:00:12.255Z,13.18
2023-04-18T03:02:38.860Z,12.88
2023-04-18T03:05:05.949Z,13.48
2023-04-18T03:07:33.872Z,13.35
2023-04-18T03:10:00.334Z,13.48
2023-04-18T03:12:26.833Z,14.02
2023-04-18T03:14:53.299Z,14.02
2023-04-18T03:17:19.772Z,13.63
2023-04-18T03:19:46.261Z,16.55
2023-04-18T03:22:13.237Z,14.30
2023-04-18T03:24:41.210Z,13.95
2023-04-18T03:27:07.739Z,12.15
2023-04-18T03:29:34.290Z,14.00
2023-04-18T03:32:00.827Z,12.52
2023-04-18T03:34:27.635Z,13.43
2023-04-18T03:36:54.161Z,12.60
2023-04-18T03:39:20.661Z,15.60
2023-04-18T03:41:48.434Z,13.43
2023-04-18T03:44:15.165Z,11.60
2023-04-18T03:46:42.092Z,13.27
2023-04-18T03:49:08.634Z,13.93
2023-04-18T03:51:44.237Z,14.40
2023-04-18T03:54:10.883Z,12.43
2023-04-18T03:56:37.491Z,14.30
2023-04-18T03:59:05.387Z,13.23
2023-04-18T04:01:32.071Z,13.18
2023-04-18T04:03:58.653Z,12.80
2023-04-18T04:06:25.707Z,13.48
2023-04-18T04:08:52.136Z,12.63
2023-04-18T04:11:18.670Z,13.75
2023-04-18T04:13:45.142Z,14.02
2023-04-18T04:16:13.228Z,13.32
2023-04-18T04:18:39.754Z,11.93
2023-04-18T04:21:06.408Z,13.45
2023-04-18T04:23:32.856Z,11.82
2023-04-18T04:25:59.685Z,14.57
2023-04-18T04:28:26.160Z,13.57
2023-04-18T04:30:53.103Z,13.90
2023-04-18T04:33:22.409Z,13.65
2023-04-18T04:35:49.307Z,12.38
2023-04-18T04:38:15.837Z,12.32
2023-04-18T04:40:42.840Z,12.13
2023-04-18T04:43:09.308Z,16.02
2023-04-18T04:45:35.852Z,16.98
2023-04-18T04:48:02.471Z,18.77
2023-04-18T04:50:30.291Z,19.08
2023-04-18T04:52:56.711Z,19.88
2023-04-18T04:55:23.238Z,19.30
2023-04-18T04:57:49.757Z,23.73
2023-04-18T05:00:16.983Z,26.55
2023-04-18T05:02:43.523Z,32.53
2023-04-18T05:05:10.162Z,25.80
2023-04-18T05:07:37.978Z,28.15
2023-04-18T05:10:04.963Z,31.77
2023-04-18T05:12:31.549Z,34.30
2023-04-18T05:14:58.040Z,32.75
2023-04-18T05:17:24.660Z,31.33
2023-04-18T05:19:51.110Z,30.40
2023-04-18T05:22:17.571Z,27.42
2023-04-18T05:24:45.446Z,27.90
2023-04-18T05:27:11.930Z,31.20
2023-04-18T05:29:38.520Z,40.05
2023-04-18T05:32:05.402Z,40.85
2023-04-18T05:34:31.926Z,42.08
2023-04-18T05:36:58.612Z,45.97
2023-04-18T05:39:25.025Z,39.60
2023-04-18T05:41:52.833Z,42.25
2023-04-18T05:44:19.817Z,38.97
2023-04-18T05:46:46.728Z,46.97
2023-04-18T05:49:13.223Z,44.80
2023-04-18T05:51:39.831Z,42.10
2023-04-18T05:54:06.359Z,36.88
2023-04-18T05:56:32.850Z,36.50
2023-04-18T05:59:00.651Z,38.85
2023-04-18T06:01:27.214Z,39.42
2023-04-18T06:03:54.425Z,31.35
2023-04-18T06:06:21.165Z,30.13
2023-04-18T06:08:47.752Z,28.83
2023-04-18T06:11:14.201Z,29.80
2023-04-18T06:13:41.201Z,27.73
2023-04-18T06:16:09.047Z,28.88
2023-04-18T06:18:35.598Z,27.60
2023-04-18T06:21:02.142Z,26.17
2023-04-18T06:23:28.661Z,24.95
2023-04-18T06:25:57.048Z,26.40
2023-04-18T06:28:23.710Z,34.95
2023-04-18T06:30:50.203Z,36.58
2023-04-18T06:33:18.130Z,39.83
2023-04-18T06:35:44.732Z,32.70
2023-04-18T06:38:11.699Z,34.28
2023-04-18T06:40:38.330Z,36.42
2023-04-18T06:43:04.807Z,32.88
2023-04-18T06:45:31.446Z,35.33
2023-04-18T06:47:58.466Z,35.95
2023-04-18T06:50:27.076Z,33.47
2023-04-18T06:52:53.534Z,35.13
2023-04-18T06:55:20.060Z,30.38
2023-04-18T06:57:46.567Z,40.00
2023-04-18T07:00:13.942Z,31.92
2023-04-18T07:02:40.741Z,34.13
2023-04-18T07:05:08.726Z,29.17
2023-04-18T07:07:36.496Z,28.15
2023-04-18T07:10:03.162Z,29.88
2023-04-18T07:12:29.720Z,29.58
2023-04-18T07:14:56.257Z,30.40
2023-04-18T07:17:22.802Z,29.63
2023-04-18T07:19:49.428Z,30.73
2023-04-18T07:22:15.908Z,28.10
2023-04-18T07:24:43.673Z,26.40
2023-04-18T07:27:10.111Z,28.55
2023-04-18T07:29:36.556Z,27.20
2023-04-18T07:32:03.048Z,29.20
2023-04-18T07:34:29.867Z,28.67
2023-04-18T07:36:56.899Z,25.58
2023-04-18T07:39:23.337Z,26.73
2023-04-18T07:41:51.145Z,29.73
2023-04-18T07:44:17.766Z,28.02
2023-04-18T07:46:44.324Z,26.40
2023-04-18T07:49:10.933Z,26.83
2023-04-18T07:51:37.591Z,22.52
2023-04-18T07:54:04.287Z,25.30
2023-04-18T07:56:30.740Z,24.85
2023-04-18T07:58:58.517Z,21.58
2023-04-18T08:01:25.005Z,22.52
2023-04-18T08:03:51.716Z,24.55
2023-04-18T08:06:18.313Z,25.55
2023-04-18T08:08:44.920Z,22.70
2023-04-18T08:11:11.402Z,25.73
2023-04-18T08:13:38.127Z,24.35
2023-04-18T08:16:06.445Z,21.58
2023-04-18T08:18:32.964Z,23.63
2023-04-18T08:20:59.483Z,20.63
2023-04-18T08:23:25.968Z,22.67
2023-04-18T08:25:52.476Z,20.60
2023-04-18T08:28:18.970Z,26.55
2023-04-18T08:30:45.502Z,23.05
2023-04-18T08:33:13.286Z,26.30
2023-04-18T08:35:39.775Z,18.88
2023-04-18T08:38:06.262Z,22.75
2023-04-18T08:40:32.787Z,22.58
2023-04-18T08:43:01.901Z,21.25
2023-04-18T08:45:28.579Z,20.00
2023-04-18T08:47:55.408Z,26.17
2023-04-18T08:50:23.244Z,20.15
2023-04-18T08:52:51.216Z,23.40
2023-04-18T08:55:17.733Z,22.58
2023-04-18T08:57:44.660Z,27.25
2023-04-18T09:00:12.073Z,32.53
2023-04-18T09:02:40.397Z,49.15
2023-04-18T09:05:11.625Z,24.75
2023-04-18T09:07:39.473Z,24.05
2023-04-18T09:10:06.636Z,24.13
2023-04-18T09:12:40.245Z,22.05
2023-04-18T09:15:11.314Z,22.73
2023-04-18T09:17:39.630Z,25.67
2023-04-18T09:20:07.550Z,23.10
2023-04-18T09:22:47.744Z,20.63
2023-04-18T09:25:24.895Z,18.80
2023-04-18T09:27:51.618Z,21.73
2023-04-18T09:30:30.069Z,18.27
2023-04-18T09:32:58.283Z,20.85
2023-04-18T09:35:25.972Z,16.95
2023-04-18T09:37:53.845Z,18.08
2023-04-18T09:40:21.272Z,23.60
2023-04-18T09:42:47.950Z,16.15
2023-04-18T09:45:14.435Z,22.98
2023-04-18T09:47:40.943Z,20.23
2023-04-18T09:50:09.623Z,20.40
2023-04-18T09:52:38.572Z,16.83
2023-04-18T09:55:09.183Z,21.05
2023-04-18T09:57:37.735Z,15.90
2023-04-18T10:00:08.136Z,14.93
2023-04-18T10:02:46.887Z,16.63
2023-04-18T10:05:14.424Z,16.90
2023-04-18T10:07:43.781Z,15.05
2023-04-18T10:10:11.657Z,14.02
2023-04-18T10:12:38.992Z,18.90
2023-04-18T10:15:07.152Z,14.65
2023-04-18T10:17:56.023Z,17.00
2023-04-18T10:20:28.585Z,11.70
2023-04-18T10:22:55.975Z,18.70
2023-04-18T10:25:42.320Z,12.32
2023-04-18T10:28:10.146Z,16.60
2023-04-18T10:30:56.399Z,12.68
2023-04-18T10:33:31.787Z,12.75
2023-04-18T10:36:01.091Z,12.45
2023-04-18T10:38:27.999Z,14.15
2023-04-18T10:41:13.726Z,12.90
2023-04-18T10:44:06.278Z,16.50
2023-04-18T10:46:34.356Z,12.20
2023-04-18T10:49:14.448Z,11.15
2023-04-18T10:51:41.567Z,13.98
2023-04-18T10:54:10.616Z,15.45
2023-04-18T10:56:37.369Z,13.88
2023-04-18T10:59:03.802Z,12.82
2023-04-18T11:01:32.753Z,11.88
2023-04-18T11:04:01.179Z,14.85
2023-04-18T11:06:28.335Z,14.10
2023-04-18T11:09:09.365Z,13.00
2023-04-18T11:11:35.802Z,14.75
2023-04-18T11:14:02.358Z,12.80
2023-04-18T11:16:30.518Z,15.23
2023-04-18T11:18:57.491Z,12.23
2023-04-18T11:21:29.141Z,13.35
2023-04-18T11:23:57.828Z,11.15
2023-04-18T11:26:24.862Z,13.68
2023-04-18T11:28:52.030Z,12.07
2023-04-18T11:31:18.548Z,13.48
2023-04-18T11:33:46.519Z,12.35
2023-04-18T11:36:13.302Z,11.82
2023-04-18T11:38:41.232Z,12.70
2023-04-18T11:41:12.291Z,11.77
2023-04-18T11:43:42.989Z,14.13
2023-04-18T11:46:09.539Z,14.90
2023-04-18T11:48:36.587Z,10.55
2023-04-18T11:51:03.338Z,15.18
2023-04-18T11:53:33.653Z,12.68
2023-04-18T11:56:02.042Z,13.35
2023-04-18T11:58:32.728Z,13.20
2023-04-18T12:00:59.482Z,11.15
2023-04-18T12:03:26.229Z,14.85
2023-04-18T12:05:59.088Z,13.45
2023-04-18T12:08:25.786Z,12.82
2023-04-18T12:10:54.557Z,11.48
2023-04-18T12:13:25.992Z,12.27
2023-04-18T12:15:53.356Z,11.65
2023-04-18T12:18:20.036Z,11.70
2023-04-18T12:20:47.948Z,10.93
2023-04-18T12:23:31.965Z,11.00
2023-04-18T12:25:59.213Z,12.75
2023-04-18T12:28:27.586Z,11.48
2023-04-18T12:30:54.029Z,12.13
2023-04-18T12:33:20.570Z,11.93
2023-04-18T12:35:49.391Z,11.05
2023-04-18T12:38:20.210Z,10.05
2023-04-18T12:40:46.683Z,9.80
2023-04-18T12:43:13.200Z,11.90
2023-04-18T12:45:41.111Z,9.98
2023-04-18T12:48:07.662Z,9.40
2023-04-18T12:50:34.506Z,10.07
2023-04-18T12:53:01.593Z,11.50
2023-04-18T12:55:29.122Z,12.23
2023-04-18T12:57:56.168Z,10.05
2023-04-18T13:00:24.044Z,12.35
2023-04-18T13:02:52.909Z,9.68
2023-04-18T13:05:22.281Z,12.13
2023-04-18T13:07:49.515Z,9.75
2023-04-18T13:10:18.086Z,10.80
2023-04-18T13:12:45.426Z,10.13
2023-04-18T13:15:12.667Z,11.98
2023-04-18T13:17:39.863Z,9.45
2023-04-18T13:20:09.910Z,13.55
2023-04-18T13:22:36.794Z,11.73
2023-04-18T13:25:03.354Z,13.10
2023-04-18T13:27:29.943Z,9.48
2023-04-18T13:29:56.486Z,10.73
2023-04-18T13:32:23.297Z,12.40
2023-04-18T13:34:49.816Z,10.30
2023-04-18T13:37:17.652Z,13.13
2023-04-18T13:39:44.407Z,13.25
2023-04-18T13:42:10.870Z,14.30
2023-04-18T13:44:38.260Z,13.15
2023-04-18T13:47:06.172Z,11.68
2023-04-18T13:49:33.473Z,12.60
2023-04-18T13:52:00.040Z,11.73
2023-04-18T13:54:29.044Z,12.63
2023-04-18T13:56:56.197Z,10.05
2023-04-18T13:59:22.948Z,13.77
2023-04-18T14:01:49.709Z,11.57
2023-04-18T14:04:16.777Z,11.57
2023-04-18T14:06:43.668Z,12.02
2023-04-18T14:09:10.128Z,11.25
2023-04-18T14:11:37.912Z,11.65
2023-04-18T14:14:04.379Z,12.35
2023-04-18T14:16:32.420Z,11.48
2023-04-18T14:19:00.769Z,11.52
2023-04-18T14:21:27.818Z,11.77
2023-04-18T14:23:54.692Z,14.05
2023-04-18T14:26:21.430Z,12.63
2023-04-18T14:28:49.341Z,11.57
2023-04-18T14:31:15.914Z,12.95
2023-04-18T14:33:42.773Z,13.60
2023-04-18T14:36:09.769Z,12.38
2023-04-18T14:38:36.572Z,13.40
2023-04-18T14:41:04.185Z,9.95
2023-04-18T14:43:30.916Z,16.05
2023-04-18T14:45:59.728Z,13.45
2023-04-18T14:48:26.443Z,11.65
2023-04-18T14:50:56.492Z,10.43
2023-04-18T14:53:23.130Z,12.18
2023-04-18T14:55:49.734Z,11.13
2023-04-18T14:58:16.238Z,9.68
2023-04-18T15:00:42.743Z,9.88
2023-04-18T15:03:11.379Z,12.55
2023-04-18T15:05:38.126Z,8.63
2023-04-18T15:08:04.796Z,10.43
2023-04-18T15:10:31.225Z,9.63
2023-04-18T15:12:57.702Z,7.25
2023-04-18T15:15:24.230Z,9.40
2023-04-18T15:17:50.698Z,9.20
2023-04-18T15:20:18.690Z,8.88
2023-04-18T15:22:45.162Z,10.25
2023-04-18T15:25:11.649Z,8.38
2023-04-18T15:27:38.131Z,10.25
2023-04-18T15:30:05.527Z,8.65
2023-04-18T15:32:32.033Z,8.13
2023-04-18T15:34:58.626Z,7.53
2023-04-18T15:37:26.456Z,8.68
2023-04-18T15:39:53.027Z,9.05
2023-04-18T15:42:19.506Z,10.85
2023-04-18T15:44:45.944Z,9.48
2023-04-18T15:47:12.401Z,7.90
2023-04-18T15:49:38.836Z,7.90
2023-04-18T15:52:05.290Z,8.30
2023-04-18T15:54:33.083Z,7.85
2023-04-18T15:56:59.562Z,6.70
2023-04-18T15:59:26.044Z,10.85
2023-04-18T16:01:52.687Z,7.55
2023-04-18T16:04:19.299Z,8.35
2023-04-18T16:06:45.889Z,7.35
2023-04-18T16:09:12.391Z,7.35
2023-04-18T16:11:40.262Z,9.52
2023-04-18T16:14:06.797Z,9.20
2023-04-18T16:16:33.282Z,5.75
2023-04-18T16:18:59.884Z,7.78
2023-04-18T16:21:27.506Z,6.35
2023-04-18T16:23:54.006Z,7.32
2023-04-18T16:26:20.436Z,9.70
2023-04-18T16:28:48.276Z,7.00
2023-04-18T16:31:14.946Z,6.03
2023-04-18T16:33:41.518Z,7.32
2023-04-18T16:36:09.090Z,7.05
2023-04-18T16:38:35.703Z,7.10
2023-04-18T16:41:02.227Z,7.57
2023-04-18T16:43:28.810Z,6.95
2023-04-18T16:45:57.376Z,7.68
2023-04-18T16:48:24.166Z,7.25
2023-04-18T16:50:50.640Z,6.72
2023-04-18T16:53:17.216Z,7.47
2023-04-18T16:55:43.731Z,5.47
2023-04-18T16:58:10.237Z,6.72
2023-04-18T17:00:38.373Z,4.82
2023-04-18T17:03:06.689Z,6.22
2023-04-18T17:05:33.332Z,6.40
2023-04-18T17:08:00.100Z,6.28
2023-04-18T17:10:28.747Z,7.95
2023-04-18T17:12:55.241Z,6.88
2023-04-18T17:15:21.935Z,6.65
2023-04-18T17:17:48.478Z,7.38
2023-04-18T17:20:16.740Z,6.80
2023-04-18T17:22:43.294Z,5.50
2023-04-18T17:25:10.155Z,5.70
2023-04-18T17:27:36.617Z,5.63
2023-04-18T17:30:03.296Z,5.00
2023-04-18T17:32:29.792Z,6.18
2023-04-18T17:34:56.261Z,6.43
2023-04-18T17:37:24.038Z,4.93
2023-04-18T17:39:50.511Z,7.20
2023-04-18T17:42:18.949Z,6.13
2023-04-18T17:44:45.427Z,6.32
2023-04-18T17:47:11.977Z,5.57
2023-04-18T17:49:38.459Z,7.13
2023-04-18T17:52:05.201Z,5.60
2023-04-18T17:54:32.938Z,4.07
2023-04-18T17:56:59.403Z,6.80
2023-04-18T17:59:25.827Z,5.40
2023-04-18T18:01:52.444Z,5.30
2023-04-18T18:04:19.269Z,6.03
2023-04-18T18:06:54.210Z,5.32
2023-04-18T18:09:20.697Z,4.57
2023-04-18T18:11:48.510Z,6.40
2023-04-18T18:14:15.369Z,4.15
2023-04-18T18:16:41.926Z,7.13
2023-04-18T18:19:08.518Z,6.25
2023-04-18T18:21:35.134Z,5.82
2023-04-18T18:24:01.747Z,4.75
2023-04-18T18:26:28.370Z,7.55
2023-04-18T18:28:56.193Z,5.65
2023-04-18T18:31:22.704Z,5.72
2023-04-18T18:33:49.213Z,6.13
2023-04-18T18:36:15.696Z,5.45
2023-04-18T18:38:42.190Z,5.50
2023-04-18T18:41:08.985Z,5.20
2023-04-18T18:43:35.427Z,5.78
2023-04-18T18:46:03.235Z,5.72
2023-04-18T18:48:29.784Z,6.70
2023-04-18T18:50:56.332Z,5.47
2023-04-18T18:53:22.801Z,5.88
2023-04-18T18:55:49.339Z,5.30
2023-04-18T18:58:15.848Z,7.10
2023-04-18T19:00:42.268Z,7.10
2023-04-18T19:03:10.195Z,5.18
2023-04-18T19:05:36.695Z,4.90
2023-04-18T19:08:03.395Z,4.82
2023-04-18T19:10:29.976Z,4.85
2023-04-18T19:12:56.493Z,4.47
2023-04-18T19:15:23.404Z,5.97
2023-04-18T19:17:50.088Z,5.20
2023-04-18T19:20:17.937Z,6.05
2023-04-18T19:22:44.525Z,4.53
2023-04-18T19:25:11.066Z,5.53
2023-04-18T19:27:37.558Z,4.88
2023-04-18T19:30:04.505Z,4.25
2023-04-18T19:32:31.103Z,4.82
2023-04-18T19:34:57.627Z,5.25
2023-04-18T19:37:25.411Z,4.70
2023-04-18T19:39:51.868Z,4.57
2023-04-18T19:42:18.455Z,4.32
2023-04-18T19:44:44.901Z,6.70
2023-04-18T19:47:11.376Z,6.13
2023-04-18T19:49:37.933Z,5.55
2023-04-18T19:52:04.682Z,5.28
2023-04-18T19:54:32.566Z,4.80
2023-04-18T19:56:59.054Z,5.40
2023-04-18T19:59:25.611Z,5.82
2023-04-18T20:01:52.083Z,4.32
2023-04-18T20:04:18.617Z,5.75
2023-04-18T20:06:45.200Z,5.25
2023-04-18T20:09:11.667Z,5.43
2023-04-18T20:11:39.368Z,5.53
2023-04-18T20:14:05.839Z,5.45
2023-04-18T20:16:32.411Z,5.18
2023-04-18T20:18:58.869Z,5.60
2023-04-18T20:21:25.449Z,5.60
2023-04-18T20:23:51.982Z,4.78
2023-04-18T20:26:18.531Z,5.72
2023-04-18T20:28:46.381Z,5.70
2023-04-18T20:31:12.942Z,5.18
2023-04-18T20:33:39.422Z,5.72
2023-04-18T20:36:06.018Z,5.22
2023-04-18T20:38:32.725Z,5.22
2023-04-18T20:40:59.190Z,6.80
2023-04-18T20:43:25.683Z,5.88
2023-04-18T20:45:53.443Z,5.68
2023-04-18T20:48:20.139Z,5.32
2023-04-18T20:50:46.761Z,5.28
2023-04-18T20:53:13.305Z,6.82
2023-04-18T20:55:39.793Z,6.50
2023-04-18T20:58:06.378Z,5.07
2023-04-18T21:00:32.853Z,5.60
2023-04-18T21:03:00.847Z,7.53
2023-04-18T21:05:27.566Z,5.97
2023-04-18T21:07:54.014Z,5.97
2023-04-18T21:10:20.541Z,5.78
2023-04-18T21:12:47.023Z,5.72
2023-04-18T21:15:13.515Z,5.22
2023-04-18T21:17:40.026Z,5.28
2023-04-18T21:20:08.846Z,5.18
2023-04-18T21:22:35.370Z,8.63
2023-04-18T21:25:02.723Z,5.97
2023-04-18T21:27:29.677Z,4.53
2023-04-18T21:29:56.288Z,5.07
2023-04-18T21:32:22.882Z,5.63
2023-04-18T21:34:49.402Z,5.95
2023-04-18T21:37:17.265Z,5.05
2023-04-18T21:39:43.898Z,6.15
2023-04-18T21:42:10.499Z,6.43
2023-04-18T21:44:36.971Z,5.63
2023-04-18T21:47:03.460Z,5.93
2023-04-18T21:49:29.952Z,4.57
2023-04-18T21:51:56.436Z,5.97
2023-04-18T21:54:24.200Z,6.07
2023-04-18T21:56:50.738Z,6.88
2023-04-18T21:59:17.227Z,4.53
2023-04-18T22:01:43.804Z,7.00
2023-04-18T22:04:10.390Z,5.07
2023-04-18T22:06:37.043Z,6.38
2023-04-18T22:09:03.600Z,5.22
2023-04-18T22:11:31.417Z,6.57
2023-04-18T22:13:57.866Z,6.15
2023-04-18T22:16:24.441Z,6.32
2023-04-18T22:18:51.092Z,7.45
2023-04-18T22:21:17.618Z,6.55
2023-04-18T22:23:44.065Z,5.85
2023-04-18T22:26:10.571Z,6.25
2023-04-18T22:28:38.502Z,6.45
2023-04-18T22:31:05.230Z,6.10
2023-04-18T22:33:31.888Z,6.13
2023-04-18T22:35:58.306Z,5.57
2023-04-18T22:38:25.025Z,6.00
2023-04-18T22:40:51.550Z,7.13
2023-04-18T22:43:18.012Z,7.78
2023-04-18T22:45:46.533Z,6.20
2023-04-18T22:48:13.091Z,6.25
2023-04-18T22:50:39.578Z,5.38
2023-04-18T22:53:06.049Z,5.57
2023-04-18T22:55:32.623Z,6.38
2023-04-18T22:57:59.107Z,5.60
2023-04-18T23:00:25.667Z,6.32
2023-04-18T23:02:53.598Z,6.18
2023-04-18T23:05:20.349Z,5.35
2023-04-18T23:07:46.874Z,5.85
2023-04-18T23:10:13.525Z,5.43
2023-04-18T23:12:40.034Z,6.93
2023-04-18T23:15:07.348Z,6.43
2023-04-18T23:17:34.023Z,6.20
2023-04-18T23:20:01.864Z,5.93
2023-04-18T23:22:28.890Z,5.57
2023-04-18T23:24:55.377Z,6.70
2023-04-18T23:27:21.840Z,6.50
2023-04-18T23:29:48.300Z,6.97
2023-04-18T23:32:14.890Z,6.57
2023-04-18T23:34:41.370Z,7.55
2023-04-18T23:37:09.295Z,6.68
2023-04-18T23:39:35.744Z,5.25
2023-04-18T23:42:02.388Z,7.07
2023-04-18T23:44:28.840Z,6.13
2023-04-18T23:46:55.369Z,5.15
2023-04-18T23:49:21.879Z,6.35
2023-04-18T23:51:48.388Z,7.68
2023-04-18T23:54:16.309Z,6.53
2023-04-18T23:56:42.857Z,6.50
2023-04-18T23:59:09.318Z,5.97
